sensor_id;sensor_type;location;lat;lon;timestamp;P1;durP1;ratioP1;P2;durP2;ratioP2
10987;SDS011;5547;42.672;23.230;2023-04-25T00:02:23;7.47;;;3.13;;
10987;SDS011;5547;42.672;23.230;2023-04-25T00:05:25;6.20;;;4.10;;
10987;SDS011;5547;42.672;23.230;2023-04-25T00:08:26;6.13;;;4.10;;
10987;SDS011;5547;42.672;23.230;2023-04-25T00:11:26;8.30;;;5.00;;
10987;SDS011;5547;42.672;23.230;2023-04-25T00:14:27;8.15;;;5.75;;
10987;SDS011;5547;42.672;23.230;2023-04-25T00:17:27;8.60;;;5.75;;
10987;SDS011;5547;42.672;23.230;2023-04-25T00:20:28;7.03;;;5.80;;
10987;SDS011;5547;42.672;23.230;2023-04-25T00:23:28;7.20;;;4.50;;
10987;SDS011;5547;42.672;23.230;2023-04-25T00:26:29;5.40;;;4.47;;
10987;SDS011;5547;42.672;23.230;2023-04-25T00:29:30;4.40;;;3.87;;
10987;SDS011;5547;42.672;23.230;2023-04-25T00:32:30;4.00;;;3.23;;
10987;SDS011;5547;42.672;23.230;2023-04-25T00:35:31;2.92;;;2.40;;
10987;SDS011;5547;42.672;23.230;2023-04-25T00:38:31;2.83;;;2.30;;
10987;SDS011;5547;42.672;23.230;2023-04-25T00:41:32;2.45;;;1.92;;
10987;SDS011;5547;42.672;23.230;2023-04-25T00:44:32;2.30;;;2.00;;
10987;SDS011;5547;42.672;23.230;2023-04-25T00:47:35;2.60;;;2.20;;
10987;SDS011;5547;42.672;23.230;2023-04-25T00:50:36;3.90;;;1.90;;
10987;SDS011;5547;42.672;23.230;2023-04-25T00:53:36;2.90;;;1.80;;
10987;SDS011;5547;42.672;23.230;2023-04-25T00:56:37;2.20;;;1.40;;
10987;SDS011;5547;42.672;23.230;2023-04-25T00:59:38;2.83;;;1.80;;
10987;SDS011;5547;42.672;23.230;2023-04-25T01:02:44;2.00;;;1.40;;
10987;SDS011;5547;42.672;23.230;2023-04-25T01:05:45;1.50;;;1.35;;
10987;SDS011;5547;42.672;23.230;2023-04-25T01:08:46;2.70;;;1.85;;
10987;SDS011;5547;42.672;23.230;2023-04-25T01:11:47;2.33;;;2.00;;
10987;SDS011;5547;42.672;23.230;2023-04-25T01:14:48;3.33;;;2.80;;
10987;SDS011;5547;42.672;23.230;2023-04-25T01:17:49;3.00;;;2.70;;
10987;SDS011;5547;42.672;23.230;2023-04-25T01:20:50;3.58;;;2.90;;
10987;SDS011;5547;42.672;23.230;2023-04-25T01:23:52;2.80;;;2.40;;
10987;SDS011;5547;42.672;23.230;2023-04-25T01:26:54;2.85;;;2.58;;
10987;SDS011;5547;42.672;23.230;2023-04-25T01:29:56;3.28;;;2.35;;
10987;SDS011;5547;42.672;23.230;2023-04-25T01:32:57;3.07;;;2.70;;
10987;SDS011;5547;42.672;23.230;2023-04-25T01:35:59;4.72;;;3.80;;
10987;SDS011;5547;42.672;23.230;2023-04-25T01:39:00;5.20;;;3.30;;
10987;SDS011;5547;42.672;23.230;2023-04-25T01:42:01;3.80;;;2.90;;
10987;SDS011;5547;42.672;23.230;2023-04-25T01:45:01;3.23;;;2.60;;
10987;SDS011;5547;42.672;23.230;2023-04-25T01:48:02;4.55;;;2.80;;
10987;SDS011;5547;42.672;23.230;2023-04-25T01:51:03;7.23;;;4.03;;
10987;SDS011;5547;42.672;23.230;2023-04-25T01:54:04;5.45;;;4.15;;
10987;SDS011;5547;42.672;23.230;2023-04-25T01:57:04;6.10;;;4.37;;
10987;SDS011;5547;42.672;23.230;2023-04-25T02:00:05;5.87;;;4.40;;
10987;SDS011;5547;42.672;23.230;2023-04-25T02:03:07;6.10;;;4.35;;
10987;SDS011;5547;42.672;23.230;2023-04-25T02:06:08;7.28;;;5.00;;
10987;SDS011;5547;42.672;23.230;2023-04-25T02:09:08;7.50;;;4.97;;
10987;SDS011;5547;42.672;23.230;2023-04-25T02:12:09;8.13;;;5.17;;
10987;SDS011;5547;42.672;23.230;2023-04-25T02:15:10;7.32;;;4.63;;
10987;SDS011;5547;42.672;23.230;2023-04-25T02:18:10;7.45;;;5.28;;
10987;SDS011;5547;42.672;23.230;2023-04-25T02:21:11;7.70;;;5.30;;
10987;SDS011;5547;42.672;23.230;2023-04-25T02:24:11;7.40;;;5.10;;
10987;SDS011;5547;42.672;23.230;2023-04-25T02:27:11;6.60;;;5.23;;
10987;SDS011;5547;42.672;23.230;2023-04-25T02:30:12;9.07;;;5.90;;
10987;SDS011;5547;42.672;23.230;2023-04-25T02:33:13;9.10;;;5.95;;
10987;SDS011;5547;42.672;23.230;2023-04-25T02:36:13;7.97;;;5.77;;
10987;SDS011;5547;42.672;23.230;2023-04-25T02:39:13;9.40;;;6.03;;
10987;SDS011;5547;42.672;23.230;2023-04-25T02:42:14;10.20;;;6.40;;
10987;SDS011;5547;42.672;23.230;2023-04-25T02:45:14;9.33;;;6.17;;
10987;SDS011;5547;42.672;23.230;2023-04-25T02:48:15;11.80;;;8.30;;
10987;SDS011;5547;42.672;23.230;2023-04-25T02:51:15;14.33;;;10.17;;
10987;SDS011;5547;42.672;23.230;2023-04-25T02:54:16;14.60;;;11.52;;
10987;SDS011;5547;42.672;23.230;2023-04-25T02:57:17;14.50;;;11.67;;
10987;SDS011;5547;42.672;23.230;2023-04-25T03:00:17;14.33;;;11.27;;
10987;SDS011;5547;42.672;23.230;2023-04-25T03:03:17;14.87;;;11.33;;
10987;SDS011;5547;42.672;23.230;2023-04-25T03:06:21;11.43;;;9.45;;
10987;SDS011;5547;42.672;23.230;2023-04-25T03:09:21;13.17;;;10.77;;
10987;SDS011;5547;42.672;23.230;2023-04-25T03:12:22;11.70;;;10.47;;
10987;SDS011;5547;42.672;23.230;2023-04-25T03:15:22;11.73;;;9.30;;
10987;SDS011;5547;42.672;23.230;2023-04-25T03:18:22;9.87;;;8.87;;
10987;SDS011;5547;42.672;23.230;2023-04-25T03:21:23;10.33;;;8.50;;
10987;SDS011;5547;42.672;23.230;2023-04-25T03:24:23;10.40;;;8.80;;
10987;SDS011;5547;42.672;23.230;2023-04-25T03:27:24;9.45;;;8.35;;
10987;SDS011;5547;42.672;23.230;2023-04-25T03:30:24;9.43;;;8.43;;
10987;SDS011;5547;42.672;23.230;2023-04-25T03:33:25;8.83;;;7.47;;
10987;SDS011;5547;42.672;23.230;2023-04-25T03:36:25;9.37;;;8.37;;
10987;SDS011;5547;42.672;23.230;2023-04-25T03:39:26;8.20;;;7.37;;
10987;SDS011;5547;42.672;23.230;2023-04-25T03:42:26;8.82;;;7.88;;
10987;SDS011;5547;42.672;23.230;2023-04-25T03:45:26;8.50;;;7.53;;
10987;SDS011;5547;42.672;23.230;2023-04-25T03:48:27;17.67;;;13.23;;
10987;SDS011;5547;42.672;23.230;2023-04-25T03:51:27;13.43;;;11.50;;
10987;SDS011;5547;42.672;23.230;2023-04-25T03:54:28;9.70;;;7.97;;
10987;SDS011;5547;42.672;23.230;2023-04-25T03:57:28;12.45;;;10.43;;
10987;SDS011;5547;42.672;23.230;2023-04-25T04:00:28;16.08;;;11.45;;
10987;SDS011;5547;42.672;23.230;2023-04-25T04:03:29;18.23;;;12.30;;
10987;SDS011;5547;42.672;23.230;2023-04-25T04:06:29;13.33;;;10.40;;
10987;SDS011;5547;42.672;23.230;2023-04-25T04:09:30;10.90;;;8.47;;
10987;SDS011;5547;42.672;23.230;2023-04-25T04:12:30;8.80;;;7.37;;
10987;SDS011;5547;42.672;23.230;2023-04-25T04:15:30;7.10;;;6.40;;
10987;SDS011;5547;42.672;23.230;2023-04-25T04:18:32;7.78;;;6.75;;
10987;SDS011;5547;42.672;23.230;2023-04-25T04:21:33;6.33;;;5.40;;
10987;SDS011;5547;42.672;23.230;2023-04-25T04:24:33;6.40;;;5.68;;
10987;SDS011;5547;42.672;23.230;2023-04-25T04:27:34;7.47;;;5.10;;
10987;SDS011;5547;42.672;23.230;2023-04-25T04:30:34;6.33;;;5.37;;
10987;SDS011;5547;42.672;23.230;2023-04-25T04:33:37;6.50;;;5.70;;
10987;SDS011;5547;42.672;23.230;2023-04-25T04:36:37;5.55;;;4.95;;
10987;SDS011;5547;42.672;23.230;2023-04-25T04:39:40;6.80;;;5.50;;
10987;SDS011;5547;42.672;23.230;2023-04-25T04:42:41;5.75;;;5.18;;
10987;SDS011;5547;42.672;23.230;2023-04-25T04:45:42;13.15;;;9.45;;
10987;SDS011;5547;42.672;23.230;2023-04-25T04:48:43;6.10;;;5.07;;
10987;SDS011;5547;42.672;23.230;2023-04-25T04:51:44;7.22;;;6.53;;
10987;SDS011;5547;42.672;23.230;2023-04-25T04:54:44;5.47;;;4.90;;
10987;SDS011;5547;42.672;23.230;2023-04-25T04:57:45;5.82;;;4.80;;
10987;SDS011;5547;42.672;23.230;2023-04-25T05:00:45;5.40;;;4.70;;
10987;SDS011;5547;42.672;23.230;2023-04-25T05:03:46;5.50;;;4.97;;
10987;SDS011;5547;42.672;23.230;2023-04-25T05:06:46;4.87;;;4.37;;
10987;SDS011;5547;42.672;23.230;2023-04-25T05:09:47;5.93;;;4.20;;
10987;SDS011;5547;42.672;23.230;2023-04-25T05:12:47;4.68;;;4.25;;
10987;SDS011;5547;42.672;23.230;2023-04-25T05:15:48;6.88;;;5.35;;
10987;SDS011;5547;42.672;23.230;2023-04-25T05:18:48;5.40;;;4.47;;
10987;SDS011;5547;42.672;23.230;2023-04-25T05:21:48;4.83;;;4.43;;
10987;SDS011;5547;42.672;23.230;2023-04-25T05:24:49;4.93;;;4.33;;
10987;SDS011;5547;42.672;23.230;2023-04-25T05:27:51;5.47;;;4.80;;
10987;SDS011;5547;42.672;23.230;2023-04-25T05:30:52;4.63;;;4.22;;
10987;SDS011;5547;42.672;23.230;2023-04-25T05:33:52;4.47;;;3.90;;
10987;SDS011;5547;42.672;23.230;2023-04-25T05:36:53;4.93;;;4.10;;
10987;SDS011;5547;42.672;23.230;2023-04-25T05:39:53;6.70;;;5.13;;
10987;SDS011;5547;42.672;23.230;2023-04-25T05:42:53;13.83;;;9.67;;
10987;SDS011;5547;42.672;23.230;2023-04-25T05:45:54;16.73;;;13.57;;
10987;SDS011;5547;42.672;23.230;2023-04-25T05:48:54;17.45;;;13.02;;
10987;SDS011;5547;42.672;23.230;2023-04-25T05:51:55;16.50;;;13.93;;
10987;SDS011;5547;42.672;23.230;2023-04-25T05:54:55;16.48;;;13.88;;
10987;SDS011;5547;42.672;23.230;2023-04-25T05:57:55;18.70;;;15.70;;
10987;SDS011;5547;42.672;23.230;2023-04-25T06:00:56;18.50;;;15.27;;
10987;SDS011;5547;42.672;23.230;2023-04-25T06:03:56;17.40;;;14.97;;
10987;SDS011;5547;42.672;23.230;2023-04-25T06:06:57;18.70;;;16.53;;
10987;SDS011;5547;42.672;23.230;2023-04-25T06:09:57;19.53;;;16.77;;
10987;SDS011;5547;42.672;23.230;2023-04-25T06:12:58;21.27;;;16.63;;
10987;SDS011;5547;42.672;23.230;2023-04-25T06:15:58;21.40;;;16.77;;
10987;SDS011;5547;42.672;23.230;2023-04-25T06:18:59;20.57;;;16.57;;
10987;SDS011;5547;42.672;23.230;2023-04-25T06:21:59;19.10;;;14.90;;
10987;SDS011;5547;42.672;23.230;2023-04-25T06:25:00;19.58;;;16.70;;
10987;SDS011;5547;42.672;23.230;2023-04-25T06:28:02;21.88;;;17.48;;
10987;SDS011;5547;42.672;23.230;2023-04-25T06:31:02;20.27;;;15.33;;
10987;SDS011;5547;42.672;23.230;2023-04-25T06:34:03;20.13;;;16.47;;
10987;SDS011;5547;42.672;23.230;2023-04-25T06:37:03;16.33;;;14.60;;
10987;SDS011;5547;42.672;23.230;2023-04-25T06:40:04;17.15;;;15.18;;
10987;SDS011;5547;42.672;23.230;2023-04-25T06:43:05;17.67;;;14.68;;
10987;SDS011;5547;42.672;23.230;2023-04-25T06:46:05;21.43;;;16.27;;
10987;SDS011;5547;42.672;23.230;2023-04-25T06:49:06;17.53;;;15.63;;
10987;SDS011;5547;42.672;23.230;2023-04-25T06:52:07;18.10;;;14.47;;
10987;SDS011;5547;42.672;23.230;2023-04-25T06:55:07;17.58;;;14.90;;
10987;SDS011;5547;42.672;23.230;2023-04-25T06:58:08;19.03;;;15.67;;
10987;SDS011;5547;42.672;23.230;2023-04-25T07:01:09;19.05;;;15.80;;
10987;SDS011;5547;42.672;23.230;2023-04-25T07:04:09;19.17;;;15.13;;
10987;SDS011;5547;42.672;23.230;2023-04-25T07:07:10;18.67;;;14.87;;
10987;SDS011;5547;42.672;23.230;2023-04-25T07:10:10;18.63;;;14.27;;
10987;SDS011;5547;42.672;23.230;2023-04-25T07:13:10;16.60;;;12.97;;
10987;SDS011;5547;42.672;23.230;2023-04-25T07:16:11;15.20;;;12.45;;
10987;SDS011;5547;42.672;23.230;2023-04-25T07:19:11;14.10;;;10.73;;
10987;SDS011;5547;42.672;23.230;2023-04-25T07:22:12;17.25;;;12.48;;
10987;SDS011;5547;42.672;23.230;2023-04-25T07:25:12;13.80;;;10.37;;
10987;SDS011;5547;42.672;23.230;2023-04-25T07:28:13;9.83;;;8.33;;
10987;SDS011;5547;42.672;23.230;2023-04-25T07:31:13;6.55;;;5.95;;
10987;SDS011;5547;42.672;23.230;2023-04-25T07:34:14;5.53;;;4.93;;
10987;SDS011;5547;42.672;23.230;2023-04-25T07:37:15;3.95;;;3.10;;
10987;SDS011;5547;42.672;23.230;2023-04-25T07:40:15;3.40;;;3.10;;
10987;SDS011;5547;42.672;23.230;2023-04-25T07:43:16;4.83;;;3.50;;
10987;SDS011;5547;42.672;23.230;2023-04-25T07:46:16;3.13;;;2.83;;
10987;SDS011;5547;42.672;23.230;2023-04-25T07:49:17;4.00;;;2.97;;
10987;SDS011;5547;42.672;23.230;2023-04-25T07:52:17;4.00;;;3.03;;
10987;SDS011;5547;42.672;23.230;2023-04-25T07:55:18;3.77;;;3.17;;
10987;SDS011;5547;42.672;23.230;2023-04-25T07:58:18;3.20;;;2.90;;
10987;SDS011;5547;42.672;23.230;2023-04-25T08:01:21;4.17;;;2.97;;
10987;SDS011;5547;42.672;23.230;2023-04-25T08:04:22;3.80;;;3.30;;
10987;SDS011;5547;42.672;23.230;2023-04-25T08:07:22;5.45;;;3.50;;
10987;SDS011;5547;42.672;23.230;2023-04-25T08:10:23;4.03;;;2.80;;
10987;SDS011;5547;42.672;23.230;2023-04-25T08:13:23;3.57;;;2.93;;
10987;SDS011;5547;42.672;23.230;2023-04-25T08:16:24;3.23;;;2.50;;
10987;SDS011;5547;42.672;23.230;2023-04-25T08:19:24;2.70;;;2.30;;
10987;SDS011;5547;42.672;23.230;2023-04-25T08:22:25;3.03;;;2.43;;
10987;SDS011;5547;42.672;23.230;2023-04-25T08:25:25;3.47;;;2.50;;
10987;SDS011;5547;42.672;23.230;2023-04-25T08:28:25;3.08;;;2.20;;
10987;SDS011;5547;42.672;23.230;2023-04-25T08:31:26;2.58;;;2.22;;
10987;SDS011;5547;42.672;23.230;2023-04-25T08:34:27;2.22;;;1.80;;
10987;SDS011;5547;42.672;23.230;2023-04-25T08:37:27;2.67;;;2.40;;
10987;SDS011;5547;42.672;23.230;2023-04-25T08:40:27;2.70;;;2.00;;
10987;SDS011;5547;42.672;23.230;2023-04-25T08:43:30;4.38;;;1.98;;
10987;SDS011;5547;42.672;23.230;2023-04-25T08:46:33;3.17;;;2.13;;
10987;SDS011;5547;42.672;23.230;2023-04-25T08:49:34;4.23;;;3.50;;
10987;SDS011;5547;42.672;23.230;2023-04-25T08:52:42;2.20;;;1.75;;
10987;SDS011;5547;42.672;23.230;2023-04-25T08:55:46;1.73;;;1.30;;
10987;SDS011;5547;42.672;23.230;2023-04-25T08:58:47;2.50;;;1.30;;
10987;SDS011;5547;42.672;23.230;2023-04-25T09:01:49;1.88;;;1.60;;
10987;SDS011;5547;42.672;23.230;2023-04-25T09:04:50;1.77;;;1.40;;
10987;SDS011;5547;42.672;23.230;2023-04-25T09:07:51;1.85;;;1.40;;
10987;SDS011;5547;42.672;23.230;2023-04-25T09:10:51;5.87;;;3.60;;
10987;SDS011;5547;42.672;23.230;2023-04-25T09:13:52;1.60;;;1.10;;
10987;SDS011;5547;42.672;23.230;2023-04-25T09:17:10;3.65;;;2.67;;
10987;SDS011;5547;42.672;23.230;2023-04-25T09:20:14;1.67;;;1.17;;
10987;SDS011;5547;42.672;23.230;2023-04-25T09:23:15;2.55;;;1.60;;
10987;SDS011;5547;42.672;23.230;2023-04-25T09:26:16;34.67;;;14.63;;
10987;SDS011;5547;42.672;23.230;2023-04-25T09:29:20;13.02;;;4.78;;
10987;SDS011;5547;42.672;23.230;2023-04-25T09:32:29;1.50;;;1.10;;
10987;SDS011;5547;42.672;23.230;2023-04-25T09:35:30;2.60;;;1.43;;
10987;SDS011;5547;42.672;23.230;2023-04-25T09:38:42;2.60;;;1.80;;
10987;SDS011;5547;42.672;23.230;2023-04-25T09:41:44;4.97;;;4.57;;
10987;SDS011;5547;42.672;23.230;2023-04-25T09:44:45;2.60;;;1.90;;
10987;SDS011;5547;42.672;23.230;2023-04-25T09:47:46;8.55;;;3.83;;
10987;SDS011;5547;42.672;23.230;2023-04-25T09:51:03;3.50;;;1.48;;
10987;SDS011;5547;42.672;23.230;2023-04-25T09:54:06;3.72;;;2.10;;
10987;SDS011;5547;42.672;23.230;2023-04-25T09:57:17;2.40;;;1.20;;
10987;SDS011;5547;42.672;23.230;2023-04-25T10:00:21;2.80;;;2.00;;
10987;SDS011;5547;42.672;23.230;2023-04-25T10:03:22;2.20;;;0.93;;
10987;SDS011;5547;42.672;23.230;2023-04-25T10:06:26;2.63;;;1.00;;
10987;SDS011;5547;42.672;23.230;2023-04-25T10:09:28;1.10;;;0.80;;
10987;SDS011;5547;42.672;23.230;2023-04-25T10:12:33;1.25;;;0.80;;
10987;SDS011;5547;42.672;23.230;2023-04-25T10:15:35;1.00;;;0.77;;
10987;SDS011;5547;42.672;23.230;2023-04-25T10:18:38;1.83;;;0.88;;
10987;SDS011;5547;42.672;23.230;2023-04-25T10:21:40;1.27;;;0.80;;
10987;SDS011;5547;42.672;23.230;2023-04-25T10:24:48;1.83;;;0.70;;
10987;SDS011;5547;42.672;23.230;2023-04-25T10:27:51;1.90;;;0.98;;
10987;SDS011;5547;42.672;23.230;2023-04-25T10:31:02;1.75;;;1.02;;
10987;SDS011;5547;42.672;23.230;2023-04-25T10:34:03;1.17;;;0.70;;
10987;SDS011;5547;42.672;23.230;2023-04-25T10:37:05;2.92;;;1.38;;
10987;SDS011;5547;42.672;23.230;2023-04-25T10:40:09;2.70;;;1.30;;
10987;SDS011;5547;42.672;23.230;2023-04-25T10:46:34;2.25;;;1.00;;
10987;SDS011;5547;42.672;23.230;2023-04-25T10:49:36;2.47;;;1.58;;
10987;SDS011;5547;42.672;23.230;2023-04-25T10:52:38;1.10;;;0.80;;
10987;SDS011;5547;42.672;23.230;2023-04-25T10:55:49;2.65;;;1.40;;
10987;SDS011;5547;42.672;23.230;2023-04-25T10:58:51;1.73;;;1.13;;
10987;SDS011;5547;42.672;23.230;2023-04-25T11:01:52;1.50;;;0.80;;
10987;SDS011;5547;42.672;23.230;2023-04-25T11:04:54;1.23;;;0.90;;
10987;SDS011;5547;42.672;23.230;2023-04-25T11:07:55;11.73;;;4.80;;
10987;SDS011;5547;42.672;23.230;2023-04-25T11:10:59;12.48;;;7.47;;
10987;SDS011;5547;42.672;23.230;2023-04-25T11:13:59;2.43;;;1.30;;
10987;SDS011;5547;42.672;23.230;2023-04-25T11:17:00;2.37;;;1.20;;
10987;SDS011;5547;42.672;23.230;2023-04-25T11:20:03;3.07;;;1.20;;
10987;SDS011;5547;42.672;23.230;2023-04-25T11:23:08;2.15;;;0.98;;
10987;SDS011;5547;42.672;23.230;2023-04-25T11:26:08;1.53;;;1.23;;
10987;SDS011;5547;42.672;23.230;2023-04-25T11:29:09;2.43;;;1.00;;
10987;SDS011;5547;42.672;23.230;2023-04-25T11:32:10;17.48;;;7.35;;
10987;SDS011;5547;42.672;23.230;2023-04-25T11:35:10;2.78;;;1.20;;
10987;SDS011;5547;42.672;23.230;2023-04-25T11:38:11;1.17;;;1.00;;
10987;SDS011;5547;42.672;23.230;2023-04-25T11:41:11;1.00;;;0.80;;
10987;SDS011;5547;42.672;23.230;2023-04-25T11:44:15;3.55;;;1.50;;
10987;SDS011;5547;42.672;23.230;2023-04-25T11:47:16;1.20;;;0.90;;
10987;SDS011;5547;42.672;23.230;2023-04-25T11:50:17;2.00;;;1.10;;
10987;SDS011;5547;42.672;23.230;2023-04-25T11:53:17;3.30;;;1.70;;
10987;SDS011;5547;42.672;23.230;2023-04-25T11:56:18;3.50;;;2.00;;
10987;SDS011;5547;42.672;23.230;2023-04-25T11:59:22;3.67;;;2.00;;
10987;SDS011;5547;42.672;23.230;2023-04-25T12:02:25;5.03;;;2.53;;
10987;SDS011;5547;42.672;23.230;2023-04-25T12:05:27;5.70;;;2.42;;
10987;SDS011;5547;42.672;23.230;2023-04-25T12:08:29;4.90;;;2.03;;
10987;SDS011;5547;42.672;23.230;2023-04-25T12:11:30;4.88;;;2.85;;
10987;SDS011;5547;42.672;23.230;2023-04-25T12:14:33;28.35;;;11.05;;
10987;SDS011;5547;42.672;23.230;2023-04-25T12:17:34;10.55;;;3.42;;
10987;SDS011;5547;42.672;23.230;2023-04-25T12:20:37;33.47;;;14.05;;
10987;SDS011;5547;42.672;23.230;2023-04-25T12:23:38;5.83;;;2.60;;
10987;SDS011;5547;42.672;23.230;2023-04-25T12:26:48;4.55;;;1.88;;
10987;SDS011;5547;42.672;23.230;2023-04-25T12:29:53;1.92;;;0.90;;
10987;SDS011;5547;42.672;23.230;2023-04-25T12:32:55;6.07;;;2.42;;
10987;SDS011;5547;42.672;23.230;2023-04-25T12:35:56;7.53;;;2.80;;
10987;SDS011;5547;42.672;23.230;2023-04-25T12:38:58;3.00;;;1.15;;
10987;SDS011;5547;42.672;23.230;2023-04-25T12:42:04;2.10;;;1.07;;
10987;SDS011;5547;42.672;23.230;2023-04-25T12:45:04;1.50;;;0.90;;
10987;SDS011;5547;42.672;23.230;2023-04-25T12:48:05;3.73;;;1.90;;
10987;SDS011;5547;42.672;23.230;2023-04-25T12:51:06;6.75;;;2.42;;
10987;SDS011;5547;42.672;23.230;2023-04-25T12:54:07;4.87;;;2.20;;
10987;SDS011;5547;42.672;23.230;2023-04-25T12:57:08;3.57;;;1.43;;
10987;SDS011;5547;42.672;23.230;2023-04-25T13:00:08;5.70;;;2.17;;
10987;SDS011;5547;42.672;23.230;2023-04-25T13:03:14;6.10;;;2.38;;
10987;SDS011;5547;42.672;23.230;2023-04-25T13:06:15;5.80;;;2.60;;
10987;SDS011;5547;42.672;23.230;2023-04-25T13:09:16;5.15;;;2.50;;
10987;SDS011;5547;42.672;23.230;2023-04-25T13:12:17;5.87;;;3.37;;
10987;SDS011;5547;42.672;23.230;2023-04-25T13:15:18;6.65;;;3.78;;
10987;SDS011;5547;42.672;23.230;2023-04-25T13:18:18;6.70;;;4.03;;
10987;SDS011;5547;42.672;23.230;2023-04-25T13:21:19;5.90;;;3.77;;
10987;SDS011;5547;42.672;23.230;2023-04-25T13:24:19;5.77;;;3.13;;
10987;SDS011;5547;42.672;23.230;2023-04-25T13:27:19;5.00;;;2.90;;
10987;SDS011;5547;42.672;23.230;2023-04-25T13:30:20;3.40;;;2.53;;
10987;SDS011;5547;42.672;23.230;2023-04-25T13:33:21;3.00;;;2.50;;
10987;SDS011;5547;42.672;23.230;2023-04-25T13:36:21;4.40;;;2.67;;
10987;SDS011;5547;42.672;23.230;2023-04-25T13:39:21;5.23;;;3.07;;
10987;SDS011;5547;42.672;23.230;2023-04-25T13:42:23;5.80;;;2.67;;
10987;SDS011;5547;42.672;23.230;2023-04-25T13:45:23;7.25;;;3.67;;
10987;SDS011;5547;42.672;23.230;2023-04-25T13:48:24;5.77;;;4.13;;
10987;SDS011;5547;42.672;23.230;2023-04-25T13:51:24;11.50;;;4.93;;
10987;SDS011;5547;42.672;23.230;2023-04-25T13:54:25;10.68;;;5.60;;
10987;SDS011;5547;42.672;23.230;2023-04-25T13:57:26;5.07;;;2.47;;
10987;SDS011;5547;42.672;23.230;2023-04-25T14:00:26;3.20;;;1.87;;
10987;SDS011;5547;42.672;23.230;2023-04-25T14:03:27;4.60;;;2.00;;
10987;SDS011;5547;42.672;23.230;2023-04-25T14:06:27;2.93;;;1.30;;
10987;SDS011;5547;42.672;23.230;2023-04-25T14:09:28;1.75;;;1.00;;
10987;SDS011;5547;42.672;23.230;2023-04-25T14:12:28;2.90;;;1.40;;
10987;SDS011;5547;42.672;23.230;2023-04-25T14:15:30;2.00;;;1.20;;
10987;SDS011;5547;42.672;23.230;2023-04-25T14:18:31;2.90;;;1.60;;
10987;SDS011;5547;42.672;23.230;2023-04-25T14:21:32;2.42;;;1.30;;
10987;SDS011;5547;42.672;23.230;2023-04-25T14:24:32;1.40;;;1.10;;
10987;SDS011;5547;42.672;23.230;2023-04-25T14:27:33;1.67;;;1.00;;
10987;SDS011;5547;42.672;23.230;2023-04-25T14:30:33;1.23;;;0.93;;
10987;SDS011;5547;42.672;23.230;2023-04-25T14:33:33;2.67;;;1.60;;
10987;SDS011;5547;42.672;23.230;2023-04-25T14:36:35;1.70;;;1.00;;
10987;SDS011;5547;42.672;23.230;2023-04-25T14:39:35;1.37;;;0.90;;
10987;SDS011;5547;42.672;23.230;2023-04-25T14:42:37;1.73;;;0.93;;
10987;SDS011;5547;42.672;23.230;2023-04-25T14:45:37;2.58;;;1.40;;
10987;SDS011;5547;42.672;23.230;2023-04-25T14:48:38;1.90;;;1.47;;
10987;SDS011;5547;42.672;23.230;2023-04-25T14:51:39;2.37;;;1.20;;
10987;SDS011;5547;42.672;23.230;2023-04-25T14:54:39;3.78;;;2.00;;
10987;SDS011;5547;42.672;23.230;2023-04-25T14:57:40;3.50;;;2.10;;
10987;SDS011;5547;42.672;23.230;2023-04-25T15:00:40;3.80;;;2.40;;
10987;SDS011;5547;42.672;23.230;2023-04-25T15:03:41;2.60;;;1.60;;
10987;SDS011;5547;42.672;23.230;2023-04-25T15:06:41;2.63;;;1.70;;
10987;SDS011;5547;42.672;23.230;2023-04-25T15:09:42;2.35;;;1.30;;
10987;SDS011;5547;42.672;23.230;2023-04-25T15:12:42;3.43;;;2.00;;
10987;SDS011;5547;42.672;23.230;2023-04-25T15:15:43;2.17;;;1.60;;
10987;SDS011;5547;42.672;23.230;2023-04-25T15:18:43;3.63;;;2.10;;
10987;SDS011;5547;42.672;23.230;2023-04-25T15:21:44;3.40;;;1.90;;
10987;SDS011;5547;42.672;23.230;2023-04-25T15:24:44;3.42;;;1.65;;
10987;SDS011;5547;42.672;23.230;2023-04-25T15:27:45;4.15;;;1.92;;
10987;SDS011;5547;42.672;23.230;2023-04-25T15:30:48;2.40;;;1.75;;
10987;SDS011;5547;42.672;23.230;2023-04-25T15:33:48;2.13;;;1.67;;
10987;SDS011;5547;42.672;23.230;2023-04-25T15:36:49;3.03;;;1.80;;
10987;SDS011;5547;42.672;23.230;2023-04-25T15:39:52;1.60;;;1.33;;
10987;SDS011;5547;42.672;23.230;2023-04-25T15:43:01;3.50;;;2.08;;
10987;SDS011;5547;42.672;23.230;2023-04-25T15:46:01;1.97;;;1.30;;
10987;SDS011;5547;42.672;23.230;2023-04-25T15:49:02;2.93;;;1.63;;
10987;SDS011;5547;42.672;23.230;2023-04-25T15:52:02;4.00;;;2.80;;
10987;SDS011;5547;42.672;23.230;2023-04-25T15:55:03;3.47;;;2.20;;
10987;SDS011;5547;42.672;23.230;2023-04-25T15:58:04;3.50;;;2.85;;
10987;SDS011;5547;42.672;23.230;2023-04-25T16:01:05;16.13;;;12.97;;
10987;SDS011;5547;42.672;23.230;2023-04-25T16:04:05;4.00;;;2.57;;
10987;SDS011;5547;42.672;23.230;2023-04-25T16:07:06;3.45;;;1.85;;
10987;SDS011;5547;42.672;23.230;2023-04-25T16:10:07;3.83;;;1.80;;
10987;SDS011;5547;42.672;23.230;2023-04-25T16:13:10;5.70;;;3.40;;
10987;SDS011;5547;42.672;23.230;2023-04-25T16:16:10;2.85;;;2.20;;
10987;SDS011;5547;42.672;23.230;2023-04-25T16:19:11;2.67;;;2.20;;
10987;SDS011;5547;42.672;23.230;2023-04-25T16:22:11;2.87;;;2.30;;
10987;SDS011;5547;42.672;23.230;2023-04-25T16:25:15;2.50;;;2.10;;
10987;SDS011;5547;42.672;23.230;2023-04-25T16:28:16;3.97;;;3.15;;
10987;SDS011;5547;42.672;23.230;2023-04-25T16:31:16;3.10;;;2.40;;
10987;SDS011;5547;42.672;23.230;2023-04-25T16:34:17;2.37;;;2.00;;
10987;SDS011;5547;42.672;23.230;2023-04-25T16:37:17;3.00;;;2.17;;
10987;SDS011;5547;42.672;23.230;2023-04-25T16:40:17;4.87;;;3.37;;
10987;SDS011;5547;42.672;23.230;2023-04-25T16:43:18;2.57;;;2.07;;
10987;SDS011;5547;42.672;23.230;2023-04-25T16:46:20;3.35;;;2.65;;
10987;SDS011;5547;42.672;23.230;2023-04-25T16:49:22;3.53;;;3.20;;
10987;SDS011;5547;42.672;23.230;2023-04-25T16:52:22;4.43;;;4.03;;
10987;SDS011;5547;42.672;23.230;2023-04-25T16:55:23;6.07;;;4.53;;
10987;SDS011;5547;42.672;23.230;2023-04-25T16:58:23;11.40;;;7.23;;
10987;SDS011;5547;42.672;23.230;2023-04-25T17:01:26;8.00;;;5.40;;
10987;SDS011;5547;42.672;23.230;2023-04-25T17:04:26;5.03;;;4.00;;
10987;SDS011;5547;42.672;23.230;2023-04-25T17:07:27;4.93;;;4.10;;
10987;SDS011;5547;42.672;23.230;2023-04-25T17:10:29;5.30;;;4.55;;
10987;SDS011;5547;42.672;23.230;2023-04-25T17:13:29;5.27;;;4.33;;
10987;SDS011;5547;42.672;23.230;2023-04-25T17:16:35;5.13;;;4.27;;
10987;SDS011;5547;42.672;23.230;2023-04-25T17:19:37;4.53;;;3.35;;
10987;SDS011;5547;42.672;23.230;2023-04-25T17:22:37;3.97;;;3.20;;
10987;SDS011;5547;42.672;23.230;2023-04-25T17:25:37;4.40;;;3.35;;
10987;SDS011;5547;42.672;23.230;2023-04-25T17:28:38;4.50;;;2.70;;
10987;SDS011;5547;42.672;23.230;2023-04-25T17:31:40;3.40;;;2.83;;
10987;SDS011;5547;42.672;23.230;2023-04-25T17:34:41;3.22;;;2.20;;
10987;SDS011;5547;42.672;23.230;2023-04-25T17:37:42;3.00;;;2.40;;
10987;SDS011;5547;42.672;23.230;2023-04-25T17:40:44;2.58;;;2.22;;
10987;SDS011;5547;42.672;23.230;2023-04-25T17:43:44;4.83;;;3.60;;
10987;SDS011;5547;42.672;23.230;2023-04-25T17:46:44;3.50;;;2.10;;
10987;SDS011;5547;42.672;23.230;2023-04-25T17:49:45;4.13;;;3.00;;
10987;SDS011;5547;42.672;23.230;2023-04-25T17:52:45;9.52;;;6.32;;
10987;SDS011;5547;42.672;23.230;2023-04-25T17:55:47;3.72;;;2.53;;
10987;SDS011;5547;42.672;23.230;2023-04-25T17:58:49;3.67;;;2.63;;
10987;SDS011;5547;42.672;23.230;2023-04-25T18:01:49;2.63;;;2.10;;
10987;SDS011;5547;42.672;23.230;2023-04-25T18:04:50;3.27;;;2.73;;
10987;SDS011;5547;42.672;23.230;2023-04-25T18:07:51;3.00;;;1.83;;
10987;SDS011;5547;42.672;23.230;2023-04-25T18:10:51;2.73;;;2.13;;